Jurh, China
Current Conditions -  °F | °C
As of 2:00 AM on Friday 28 Nov 2014 (Local Time) from ZBHH Reporting Station
Clear Clear  
Wind Chill: 16°   Ceiling: Unl
Heat Index: 16°   Visibility: 5mi
Dew Point: 12°   Wind: 2mph
Humidity: 86%   Direction: 100°E
Pressure: 30.09"   Gusts: NA
Location:  42.4°N, 112.9°E
Report Text: ZBHH 271800Z 10001MPS 8000 NSC M09/M11 Q1019 NOSIG
Loading
Personal Weather Stations






























Interactive Weather Map New forecast layout! Learn more

10-Day Weather Forecast

Advertisements
Track Severe Weather on mobile